sensor_id;sensor_type;location;lat;lon;timestamp;P1;durP1;ratioP1;P2;durP2;ratioP2
4895;SDS011;2463;49.948;8.472;2023-06-10T00:00:26;92.70;;;8.80;;
4895;SDS011;2463;49.948;8.472;2023-06-10T00:02:53;96.90;;;9.33;;
4895;SDS011;2463;49.948;8.472;2023-06-10T00:05:20;92.80;;;8.53;;
4895;SDS011;2463;49.948;8.472;2023-06-10T00:07:47;94.03;;;8.43;;
4895;SDS011;2463;49.948;8.472;2023-06-10T00:10:16;94.07;;;9.60;;
4895;SDS011;2463;49.948;8.472;2023-06-10T00:12:43;95.00;;;8.10;;
4895;SDS011;2463;49.948;8.472;2023-06-10T00:15:10;92.10;;;9.13;;
4895;SDS011;2463;49.948;8.472;2023-06-10T00:17:37;92.90;;;9.07;;
4895;SDS011;2463;49.948;8.472;2023-06-10T00:20:09;96.53;;;8.90;;
4895;SDS011;2463;49.948;8.472;2023-06-10T00:22:38;93.73;;;9.00;;
4895;SDS011;2463;49.948;8.472;2023-06-10T00:25:05;94.27;;;9.67;;
4895;SDS011;2463;49.948;8.472;2023-06-10T00:27:33;91.77;;;9.70;;
4895;SDS011;2463;49.948;8.472;2023-06-10T00:30:04;92.30;;;9.20;;
4895;SDS011;2463;49.948;8.472;2023-06-10T00:32:33;93.80;;;9.97;;
4895;SDS011;2463;49.948;8.472;2023-06-10T00:35:05;93.37;;;9.90;;
4895;SDS011;2463;49.948;8.472;2023-06-10T00:37:33;94.00;;;9.70;;
4895;SDS011;2463;49.948;8.472;2023-06-10T00:40:04;98.03;;;9.50;;
4895;SDS011;2463;49.948;8.472;2023-06-10T00:42:31;93.80;;;9.03;;
4895;SDS011;2463;49.948;8.472;2023-06-10T00:44:58;93.40;;;9.13;;
4895;SDS011;2463;49.948;8.472;2023-06-10T00:47:25;96.80;;;10.40;;
4895;SDS011;2463;49.948;8.472;2023-06-10T00:49:53;96.00;;;10.03;;
4895;SDS011;2463;49.948;8.472;2023-06-10T00:52:21;94.77;;;9.97;;
4895;SDS011;2463;49.948;8.472;2023-06-10T00:54:51;95.27;;;10.47;;
4895;SDS011;2463;49.948;8.472;2023-06-10T00:57:18;96.90;;;10.40;;
4895;SDS011;2463;49.948;8.472;2023-06-10T00:59:47;98.73;;;10.03;;
4895;SDS011;2463;49.948;8.472;2023-06-10T01:02:15;95.60;;;9.77;;
4895;SDS011;2463;49.948;8.472;2023-06-10T01:04:42;93.47;;;9.93;;
4895;SDS011;2463;49.948;8.472;2023-06-10T01:07:14;96.50;;;10.33;;
4895;SDS011;2463;49.948;8.472;2023-06-10T01:09:50;95.00;;;9.80;;
4895;SDS011;2463;49.948;8.472;2023-06-10T01:15:03;94.70;;;9.77;;
4895;SDS011;2463;49.948;8.472;2023-06-10T01:17:31;96.73;;;9.57;;
4895;SDS011;2463;49.948;8.472;2023-06-10T01:19:57;101.93;;;10.30;;
4895;SDS011;2463;49.948;8.472;2023-06-10T01:22:25;107.97;;;11.07;;
4895;SDS011;2463;49.948;8.472;2023-06-10T01:24:58;94.80;;;10.03;;
4895;SDS011;2463;49.948;8.472;2023-06-10T01:27:26;95.80;;;11.33;;
4895;SDS011;2463;49.948;8.472;2023-06-10T01:30:07;94.70;;;9.50;;
4895;SDS011;2463;49.948;8.472;2023-06-10T01:32:45;95.30;;;10.43;;
4895;SDS011;2463;49.948;8.472;2023-06-10T01:35:16;97.63;;;10.67;;
4895;SDS011;2463;49.948;8.472;2023-06-10T01:37:45;94.83;;;10.43;;
4895;SDS011;2463;49.948;8.472;2023-06-10T01:40:14;97.67;;;11.30;;
4895;SDS011;2463;49.948;8.472;2023-06-10T01:42:42;98.73;;;10.40;;
4895;SDS011;2463;49.948;8.472;2023-06-10T01:45:09;93.10;;;9.40;;
4895;SDS011;2463;49.948;8.472;2023-06-10T01:47:36;97.23;;;12.37;;
4895;SDS011;2463;49.948;8.472;2023-06-10T01:50:03;103.50;;;11.20;;
4895;SDS011;2463;49.948;8.472;2023-06-10T01:52:30;94.30;;;9.87;;
4895;SDS011;2463;49.948;8.472;2023-06-10T01:54:57;97.87;;;10.67;;
4895;SDS011;2463;49.948;8.472;2023-06-10T01:57:24;94.60;;;10.47;;
4895;SDS011;2463;49.948;8.472;2023-06-10T01:59:50;95.77;;;11.00;;
4895;SDS011;2463;49.948;8.472;2023-06-10T02:02:17;97.10;;;10.97;;
4895;SDS011;2463;49.948;8.472;2023-06-10T02:04:44;99.73;;;11.00;;
4895;SDS011;2463;49.948;8.472;2023-06-10T02:07:10;96.90;;;11.93;;
4895;SDS011;2463;49.948;8.472;2023-06-10T02:09:38;94.90;;;10.47;;
4895;SDS011;2463;49.948;8.472;2023-06-10T02:12:05;95.00;;;10.30;;
4895;SDS011;2463;49.948;8.472;2023-06-10T02:14:32;97.05;;;10.60;;
4895;SDS011;2463;49.948;8.472;2023-06-10T02:16:59;98.87;;;11.00;;
4895;SDS011;2463;49.948;8.472;2023-06-10T02:19:27;96.20;;;10.87;;
4895;SDS011;2463;49.948;8.472;2023-06-10T02:21:54;97.57;;;10.80;;
4895;SDS011;2463;49.948;8.472;2023-06-10T02:24:21;96.97;;;11.80;;
4895;SDS011;2463;49.948;8.472;2023-06-10T02:26:48;101.37;;;10.23;;
4895;SDS011;2463;49.948;8.472;2023-06-10T02:29:14;96.63;;;11.10;;
4895;SDS011;2463;49.948;8.472;2023-06-10T02:31:41;97.20;;;11.50;;
4895;SDS011;2463;49.948;8.472;2023-06-10T02:34:08;102.60;;;11.68;;
4895;SDS011;2463;49.948;8.472;2023-06-10T02:36:35;97.85;;;11.32;;
4895;SDS011;2463;49.948;8.472;2023-06-10T02:39:02;101.03;;;10.77;;
4895;SDS011;2463;49.948;8.472;2023-06-10T02:41:30;96.82;;;11.65;;
4895;SDS011;2463;49.948;8.472;2023-06-10T02:43:57;96.57;;;11.80;;
4895;SDS011;2463;49.948;8.472;2023-06-10T02:46:24;99.10;;;11.10;;
4895;SDS011;2463;49.948;8.472;2023-06-10T02:48:50;97.87;;;11.20;;
4895;SDS011;2463;49.948;8.472;2023-06-10T02:51:18;98.28;;;11.88;;
4895;SDS011;2463;49.948;8.472;2023-06-10T02:53:45;99.60;;;11.60;;
4895;SDS011;2463;49.948;8.472;2023-06-10T02:56:12;98.82;;;11.70;;
4895;SDS011;2463;49.948;8.472;2023-06-10T02:58:39;98.03;;;11.70;;
4895;SDS011;2463;49.948;8.472;2023-06-10T03:01:07;98.18;;;11.50;;
4895;SDS011;2463;49.948;8.472;2023-06-10T03:03:35;99.63;;;11.40;;
4895;SDS011;2463;49.948;8.472;2023-06-10T03:06:11;100.82;;;11.90;;
4895;SDS011;2463;49.948;8.472;2023-06-10T03:08:39;99.80;;;12.63;;
4895;SDS011;2463;49.948;8.472;2023-06-10T03:11:06;101.47;;;11.43;;
4895;SDS011;2463;49.948;8.472;2023-06-10T03:13:33;99.60;;;12.63;;
4895;SDS011;2463;49.948;8.472;2023-06-10T03:16:00;98.38;;;11.80;;
4895;SDS011;2463;49.948;8.472;2023-06-10T03:18:27;102.68;;;10.98;;
4895;SDS011;2463;49.948;8.472;2023-06-10T03:20:54;98.22;;;11.60;;
4895;SDS011;2463;49.948;8.472;2023-06-10T03:23:22;100.45;;;12.38;;
4895;SDS011;2463;49.948;8.472;2023-06-10T03:25:49;103.10;;;11.65;;
4895;SDS011;2463;49.948;8.472;2023-06-10T03:28:16;101.65;;;11.48;;
4895;SDS011;2463;49.948;8.472;2023-06-10T03:30:43;99.78;;;10.75;;
4895;SDS011;2463;49.948;8.472;2023-06-10T03:33:09;100.07;;;11.60;;
4895;SDS011;2463;49.948;8.472;2023-06-10T03:35:36;98.25;;;11.85;;
4895;SDS011;2463;49.948;8.472;2023-06-10T03:38:03;101.25;;;10.60;;
4895;SDS011;2463;49.948;8.472;2023-06-10T03:40:30;98.90;;;11.07;;
4895;SDS011;2463;49.948;8.472;2023-06-10T03:42:58;98.47;;;11.68;;
4895;SDS011;2463;49.948;8.472;2023-06-10T03:45:24;102.97;;;12.20;;
4895;SDS011;2463;49.948;8.472;2023-06-10T03:47:54;101.00;;;12.53;;
4895;SDS011;2463;49.948;8.472;2023-06-10T03:50:21;101.67;;;12.80;;
4895;SDS011;2463;49.948;8.472;2023-06-10T03:52:49;100.22;;;12.00;;
4895;SDS011;2463;49.948;8.472;2023-06-10T03:55:17;102.87;;;12.50;;
4895;SDS011;2463;49.948;8.472;2023-06-10T03:57:43;103.00;;;11.90;;
4895;SDS011;2463;49.948;8.472;2023-06-10T04:00:10;97.57;;;11.73;;
4895;SDS011;2463;49.948;8.472;2023-06-10T04:02:38;98.45;;;11.15;;
4895;SDS011;2463;49.948;8.472;2023-06-10T04:05:13;99.75;;;11.48;;
4895;SDS011;2463;49.948;8.472;2023-06-10T04:07:43;103.13;;;13.50;;
4895;SDS011;2463;49.948;8.472;2023-06-10T04:10:10;99.57;;;12.90;;
4895;SDS011;2463;49.948;8.472;2023-06-10T04:12:37;98.65;;;11.90;;
4895;SDS011;2463;49.948;8.472;2023-06-10T04:15:05;100.00;;;12.68;;
4895;SDS011;2463;49.948;8.472;2023-06-10T04:17:32;97.80;;;11.60;;
4895;SDS011;2463;49.948;8.472;2023-06-10T04:19:59;102.68;;;11.77;;
4895;SDS011;2463;49.948;8.472;2023-06-10T04:22:26;100.93;;;12.60;;
4895;SDS011;2463;49.948;8.472;2023-06-10T04:24:53;98.80;;;12.05;;
4895;SDS011;2463;49.948;8.472;2023-06-10T04:27:20;107.43;;;13.32;;
4895;SDS011;2463;49.948;8.472;2023-06-10T04:29:47;102.97;;;11.95;;
4895;SDS011;2463;49.948;8.472;2023-06-10T04:32:13;102.60;;;12.15;;
4895;SDS011;2463;49.948;8.472;2023-06-10T04:34:40;101.53;;;13.00;;
4895;SDS011;2463;49.948;8.472;2023-06-10T04:37:07;98.53;;;11.32;;
4895;SDS011;2463;49.948;8.472;2023-06-10T04:39:33;101.60;;;12.48;;
4895;SDS011;2463;49.948;8.472;2023-06-10T04:42:04;99.90;;;12.10;;
4895;SDS011;2463;49.948;8.472;2023-06-10T04:44:31;100.32;;;12.45;;
4895;SDS011;2463;49.948;8.472;2023-06-10T04:46:58;97.25;;;11.43;;
4895;SDS011;2463;49.948;8.472;2023-06-10T04:49:25;101.90;;;11.63;;
4895;SDS011;2463;49.948;8.472;2023-06-10T04:51:52;98.93;;;11.50;;
4895;SDS011;2463;49.948;8.472;2023-06-10T04:54:19;98.68;;;11.48;;
4895;SDS011;2463;49.948;8.472;2023-06-10T04:56:45;96.80;;;10.65;;
4895;SDS011;2463;49.948;8.472;2023-06-10T04:59:12;98.82;;;11.23;;
4895;SDS011;2463;49.948;8.472;2023-06-10T05:01:40;96.10;;;10.63;;
4895;SDS011;2463;49.948;8.472;2023-06-10T05:04:07;96.57;;;10.88;;
4895;SDS011;2463;49.948;8.472;2023-06-10T05:06:34;101.32;;;10.60;;
4895;SDS011;2463;49.948;8.472;2023-06-10T05:09:02;96.27;;;10.60;;
4895;SDS011;2463;49.948;8.472;2023-06-10T05:11:29;95.77;;;10.57;;
4895;SDS011;2463;49.948;8.472;2023-06-10T05:13:56;94.80;;;10.05;;
4895;SDS011;2463;49.948;8.472;2023-06-10T05:16:22;97.57;;;10.65;;
4895;SDS011;2463;49.948;8.472;2023-06-10T05:18:49;95.68;;;10.20;;
4895;SDS011;2463;49.948;8.472;2023-06-10T05:21:18;95.78;;;10.00;;
4895;SDS011;2463;49.948;8.472;2023-06-10T05:23:45;95.03;;;9.43;;
4895;SDS011;2463;49.948;8.472;2023-06-10T05:26:11;95.30;;;10.43;;
4895;SDS011;2463;49.948;8.472;2023-06-10T05:28:38;97.07;;;10.77;;
4895;SDS011;2463;49.948;8.472;2023-06-10T05:31:05;96.10;;;10.27;;
4895;SDS011;2463;49.948;8.472;2023-06-10T05:33:31;96.80;;;9.57;;
4895;SDS011;2463;49.948;8.472;2023-06-10T05:35:58;97.20;;;9.50;;
4895;SDS011;2463;49.948;8.472;2023-06-10T05:38:25;96.80;;;9.40;;
4895;SDS011;2463;49.948;8.472;2023-06-10T05:40:51;96.63;;;9.73;;
4895;SDS011;2463;49.948;8.472;2023-06-10T05:43:18;94.00;;;9.17;;
4895;SDS011;2463;49.948;8.472;2023-06-10T05:45:45;94.50;;;9.80;;
4895;SDS011;2463;49.948;8.472;2023-06-10T05:48:12;99.00;;;9.20;;
4895;SDS011;2463;49.948;8.472;2023-06-10T05:50:39;95.17;;;8.97;;
4895;SDS011;2463;49.948;8.472;2023-06-10T05:53:08;96.00;;;8.83;;
4895;SDS011;2463;49.948;8.472;2023-06-10T05:55:42;93.30;;;8.50;;
4895;SDS011;2463;49.948;8.472;2023-06-10T05:58:09;93.93;;;9.67;;
4895;SDS011;2463;49.948;8.472;2023-06-10T06:00:38;93.77;;;8.83;;
4895;SDS011;2463;49.948;8.472;2023-06-10T06:03:06;94.20;;;8.63;;
4895;SDS011;2463;49.948;8.472;2023-06-10T06:05:37;99.80;;;9.20;;
4895;SDS011;2463;49.948;8.472;2023-06-10T06:08:05;91.20;;;8.37;;
4895;SDS011;2463;49.948;8.472;2023-06-10T06:10:31;93.10;;;7.80;;
4895;SDS011;2463;49.948;8.472;2023-06-10T06:12:59;94.10;;;8.60;;
4895;SDS011;2463;49.948;8.472;2023-06-10T06:15:26;93.03;;;7.90;;
4895;SDS011;2463;49.948;8.472;2023-06-10T06:17:53;91.20;;;7.77;;
4895;SDS011;2463;49.948;8.472;2023-06-10T06:20:20;92.60;;;7.60;;
4895;SDS011;2463;49.948;8.472;2023-06-10T06:22:47;92.70;;;8.33;;
4895;SDS011;2463;49.948;8.472;2023-06-10T06:25:14;90.80;;;8.37;;
4895;SDS011;2463;49.948;8.472;2023-06-10T06:27:41;91.90;;;8.27;;
4895;SDS011;2463;49.948;8.472;2023-06-10T06:30:08;91.10;;;7.43;;
4895;SDS011;2463;49.948;8.472;2023-06-10T06:32:35;88.33;;;6.57;;
4895;SDS011;2463;49.948;8.472;2023-06-10T06:35:02;93.27;;;7.50;;
4895;SDS011;2463;49.948;8.472;2023-06-10T06:37:29;87.80;;;7.03;;
4895;SDS011;2463;49.948;8.472;2023-06-10T06:39:57;87.10;;;6.23;;
4895;SDS011;2463;49.948;8.472;2023-06-10T06:42:28;85.97;;;6.43;;
4895;SDS011;2463;49.948;8.472;2023-06-10T06:44:54;84.67;;;6.10;;
4895;SDS011;2463;49.948;8.472;2023-06-10T06:47:21;83.17;;;5.70;;
4895;SDS011;2463;49.948;8.472;2023-06-10T06:49:48;81.37;;;5.43;;
4895;SDS011;2463;49.948;8.472;2023-06-10T06:52:15;81.17;;;5.50;;
4895;SDS011;2463;49.948;8.472;2023-06-10T06:54:42;80.00;;;5.47;;
4895;SDS011;2463;49.948;8.472;2023-06-10T06:57:08;82.50;;;5.93;;
4895;SDS011;2463;49.948;8.472;2023-06-10T06:59:35;80.47;;;5.37;;
4895;SDS011;2463;49.948;8.472;2023-06-10T07:02:02;79.30;;;5.63;;
4895;SDS011;2463;49.948;8.472;2023-06-10T07:04:29;81.13;;;5.60;;
4895;SDS011;2463;49.948;8.472;2023-06-10T07:06:56;79.50;;;5.70;;
4895;SDS011;2463;49.948;8.472;2023-06-10T07:09:23;78.67;;;5.37;;
4895;SDS011;2463;49.948;8.472;2023-06-10T07:11:50;79.50;;;4.97;;
4895;SDS011;2463;49.948;8.472;2023-06-10T07:14:17;82.20;;;5.30;;
4895;SDS011;2463;49.948;8.472;2023-06-10T07:16:43;78.67;;;5.17;;
4895;SDS011;2463;49.948;8.472;2023-06-10T07:19:11;83.80;;;5.87;;
4895;SDS011;2463;49.948;8.472;2023-06-10T07:21:38;80.00;;;5.30;;
4895;SDS011;2463;49.948;8.472;2023-06-10T07:24:05;79.37;;;5.03;;
4895;SDS011;2463;49.948;8.472;2023-06-10T07:26:32;83.10;;;6.50;;
4895;SDS011;2463;49.948;8.472;2023-06-10T07:28:59;80.33;;;5.47;;
4895;SDS011;2463;49.948;8.472;2023-06-10T07:31:25;82.67;;;5.60;;
4895;SDS011;2463;49.948;8.472;2023-06-10T07:33:52;83.17;;;6.67;;
4895;SDS011;2463;49.948;8.472;2023-06-10T07:36:19;82.30;;;6.30;;
4895;SDS011;2463;49.948;8.472;2023-06-10T07:38:46;85.73;;;6.50;;
4895;SDS011;2463;49.948;8.472;2023-06-10T07:41:12;82.70;;;5.77;;
4895;SDS011;2463;49.948;8.472;2023-06-10T07:43:40;82.00;;;6.07;;
4895;SDS011;2463;49.948;8.472;2023-06-10T07:46:06;84.10;;;6.80;;
4895;SDS011;2463;49.948;8.472;2023-06-10T07:48:33;82.83;;;5.93;;
4895;SDS011;2463;49.948;8.472;2023-06-10T07:51:00;82.60;;;6.27;;
4895;SDS011;2463;49.948;8.472;2023-06-10T07:53:27;83.00;;;6.23;;
4895;SDS011;2463;49.948;8.472;2023-06-10T07:55:53;83.57;;;6.43;;
4895;SDS011;2463;49.948;8.472;2023-06-10T07:58:20;82.20;;;6.37;;
4895;SDS011;2463;49.948;8.472;2023-06-10T08:00:48;82.97;;;6.57;;
4895;SDS011;2463;49.948;8.472;2023-06-10T08:03:15;92.03;;;6.63;;
4895;SDS011;2463;49.948;8.472;2023-06-10T08:05:42;84.30;;;6.53;;
4895;SDS011;2463;49.948;8.472;2023-06-10T08:08:08;81.00;;;6.30;;
4895;SDS011;2463;49.948;8.472;2023-06-10T08:10:36;83.87;;;6.27;;
4895;SDS011;2463;49.948;8.472;2023-06-10T08:13:02;85.63;;;6.30;;
4895;SDS011;2463;49.948;8.472;2023-06-10T08:15:29;86.40;;;6.73;;
4895;SDS011;2463;49.948;8.472;2023-06-10T08:17:56;87.10;;;7.00;;
4895;SDS011;2463;49.948;8.472;2023-06-10T08:20:23;83.23;;;6.60;;
4895;SDS011;2463;49.948;8.472;2023-06-10T08:22:50;81.40;;;5.83;;
4895;SDS011;2463;49.948;8.472;2023-06-10T08:25:16;84.37;;;6.87;;
4895;SDS011;2463;49.948;8.472;2023-06-10T08:27:43;83.27;;;6.20;;
4895;SDS011;2463;49.948;8.472;2023-06-10T08:30:11;81.30;;;6.20;;
4895;SDS011;2463;49.948;8.472;2023-06-10T08:32:39;84.10;;;6.60;;
4895;SDS011;2463;49.948;8.472;2023-06-10T08:35:06;82.50;;;6.60;;
4895;SDS011;2463;49.948;8.472;2023-06-10T08:37:33;90.10;;;7.57;;
4895;SDS011;2463;49.948;8.472;2023-06-10T08:40:00;83.40;;;6.13;;
4895;SDS011;2463;49.948;8.472;2023-06-10T08:42:35;83.27;;;6.47;;
4895;SDS011;2463;49.948;8.472;2023-06-10T08:45:10;84.00;;;6.40;;
4895;SDS011;2463;49.948;8.472;2023-06-10T08:47:42;82.50;;;6.23;;
4895;SDS011;2463;49.948;8.472;2023-06-10T08:50:11;83.57;;;6.50;;
4895;SDS011;2463;49.948;8.472;2023-06-10T08:52:40;82.97;;;6.47;;
4895;SDS011;2463;49.948;8.472;2023-06-10T08:55:18;82.97;;;6.63;;
4895;SDS011;2463;49.948;8.472;2023-06-10T08:57:55;81.93;;;6.47;;
4895;SDS011;2463;49.948;8.472;2023-06-10T09:00:22;82.63;;;6.70;;
4895;SDS011;2463;49.948;8.472;2023-06-10T09:02:49;82.30;;;6.67;;
4895;SDS011;2463;49.948;8.472;2023-06-10T09:05:17;82.30;;;5.83;;
4895;SDS011;2463;49.948;8.472;2023-06-10T09:07:45;81.80;;;6.50;;
4895;SDS011;2463;49.948;8.472;2023-06-10T09:10:13;83.73;;;6.40;;
4895;SDS011;2463;49.948;8.472;2023-06-10T09:12:40;82.50;;;6.70;;
4895;SDS011;2463;49.948;8.472;2023-06-10T09:15:07;83.60;;;5.90;;
4895;SDS011;2463;49.948;8.472;2023-06-10T09:17:35;83.57;;;6.43;;
4895;SDS011;2463;49.948;8.472;2023-06-10T09:20:07;85.10;;;6.63;;
4895;SDS011;2463;49.948;8.472;2023-06-10T09:22:36;81.67;;;6.53;;
4895;SDS011;2463;49.948;8.472;2023-06-10T09:25:04;82.27;;;6.50;;
4895;SDS011;2463;49.948;8.472;2023-06-10T09:27:48;81.57;;;6.33;;
4895;SDS011;2463;49.948;8.472;2023-06-10T09:30:24;81.67;;;6.30;;
4895;SDS011;2463;49.948;8.472;2023-06-10T09:32:59;82.07;;;6.60;;
4895;SDS011;2463;49.948;8.472;2023-06-10T09:35:28;81.90;;;6.50;;
4895;SDS011;2463;49.948;8.472;2023-06-10T09:37:57;86.20;;;6.47;;
4895;SDS011;2463;49.948;8.472;2023-06-10T09:40:25;81.90;;;6.40;;
4895;SDS011;2463;49.948;8.472;2023-06-10T09:42:57;88.37;;;6.43;;
4895;SDS011;2463;49.948;8.472;2023-06-10T09:45:31;81.43;;;6.10;;
4895;SDS011;2463;49.948;8.472;2023-06-10T09:47:59;81.47;;;5.70;;
4895;SDS011;2463;49.948;8.472;2023-06-10T09:50:26;81.90;;;6.17;;
4895;SDS011;2463;49.948;8.472;2023-06-10T09:52:54;86.50;;;6.57;;
4895;SDS011;2463;49.948;8.472;2023-06-10T09:55:20;81.97;;;5.83;;
4895;SDS011;2463;49.948;8.472;2023-06-10T09:57:49;81.37;;;6.33;;
4895;SDS011;2463;49.948;8.472;2023-06-10T10:00:19;81.00;;;5.73;;
4895;SDS011;2463;49.948;8.472;2023-06-10T10:02:50;80.90;;;6.17;;
4895;SDS011;2463;49.948;8.472;2023-06-10T10:05:18;81.57;;;5.50;;
4895;SDS011;2463;49.948;8.472;2023-06-10T10:07:47;79.97;;;5.53;;
4895;SDS011;2463;49.948;8.472;2023-06-10T10:10:16;80.50;;;5.30;;
4895;SDS011;2463;49.948;8.472;2023-06-10T10:12:45;79.97;;;5.77;;
4895;SDS011;2463;49.948;8.472;2023-06-10T10:15:13;80.30;;;6.03;;
4895;SDS011;2463;49.948;8.472;2023-06-10T10:17:45;83.03;;;5.73;;
4895;SDS011;2463;49.948;8.472;2023-06-10T10:20:20;80.17;;;5.70;;
4895;SDS011;2463;49.948;8.472;2023-06-10T10:22:51;82.70;;;5.80;;
4895;SDS011;2463;49.948;8.472;2023-06-10T10:25:32;81.57;;;5.40;;
4895;SDS011;2463;49.948;8.472;2023-06-10T10:28:06;81.90;;;5.67;;
4895;SDS011;2463;49.948;8.472;2023-06-10T10:30:39;83.07;;;6.03;;
4895;SDS011;2463;49.948;8.472;2023-06-10T10:33:09;80.70;;;6.20;;
4895;SDS011;2463;49.948;8.472;2023-06-10T10:35:43;81.03;;;5.63;;
4895;SDS011;2463;49.948;8.472;2023-06-10T10:38:12;93.90;;;6.83;;
4895;SDS011;2463;49.948;8.472;2023-06-10T10:40:38;80.80;;;5.67;;
4895;SDS011;2463;49.948;8.472;2023-06-10T10:43:06;81.57;;;6.30;;
4895;SDS011;2463;49.948;8.472;2023-06-10T10:45:34;81.00;;;5.60;;
4895;SDS011;2463;49.948;8.472;2023-06-10T10:48:04;83.50;;;5.70;;
4895;SDS011;2463;49.948;8.472;2023-06-10T10:50:36;82.27;;;5.90;;
4895;SDS011;2463;49.948;8.472;2023-06-10T10:53:03;83.80;;;5.70;;
4895;SDS011;2463;49.948;8.472;2023-06-10T10:55:31;81.27;;;5.43;;
4895;SDS011;2463;49.948;8.472;2023-06-10T10:58:05;81.20;;;6.03;;
4895;SDS011;2463;49.948;8.472;2023-06-10T11:00:37;83.93;;;6.13;;
4895;SDS011;2463;49.948;8.472;2023-06-10T11:03:12;80.77;;;6.00;;
4895;SDS011;2463;49.948;8.472;2023-06-10T11:05:41;80.70;;;6.10;;
4895;SDS011;2463;49.948;8.472;2023-06-10T11:08:11;80.10;;;5.60;;
4895;SDS011;2463;49.948;8.472;2023-06-10T11:10:39;80.17;;;5.50;;
4895;SDS011;2463;49.948;8.472;2023-06-10T11:13:13;80.63;;;5.40;;
4895;SDS011;2463;49.948;8.472;2023-06-10T11:15:44;82.67;;;5.93;;
4895;SDS011;2463;49.948;8.472;2023-06-10T11:18:14;80.07;;;5.97;;
4895;SDS011;2463;49.948;8.472;2023-06-10T11:31:20;82.00;;;5.87;;
4895;SDS011;2463;49.948;8.472;2023-06-10T11:34:02;79.30;;;5.47;;
4895;SDS011;2463;49.948;8.472;2023-06-10T11:36:31;82.90;;;5.90;;
4895;SDS011;2463;49.948;8.472;2023-06-10T11:38:59;84.37;;;5.63;;
4895;SDS011;2463;49.948;8.472;2023-06-10T11:41:28;79.90;;;4.93;;
4895;SDS011;2463;49.948;8.472;2023-06-10T11:44:00;80.07;;;5.47;;
4895;SDS011;2463;49.948;8.472;2023-06-10T11:46:29;81.90;;;5.23;;
4895;SDS011;2463;49.948;8.472;2023-06-10T11:48:57;80.43;;;5.60;;
4895;SDS011;2463;49.948;8.472;2023-06-10T11:51:25;85.77;;;4.80;;
4895;SDS011;2463;49.948;8.472;2023-06-10T11:53:53;84.10;;;4.93;;
4895;SDS011;2463;49.948;8.472;2023-06-10T11:56:21;79.47;;;4.73;;
4895;SDS011;2463;49.948;8.472;2023-06-10T11:58:56;80.47;;;5.17;;
4895;SDS011;2463;49.948;8.472;2023-06-10T12:01:25;84.77;;;5.10;;
4895;SDS011;2463;49.948;8.472;2023-06-10T12:03:58;78.37;;;4.27;;
4895;SDS011;2463;49.948;8.472;2023-06-10T12:06:26;78.80;;;4.80;;
4895;SDS011;2463;49.948;8.472;2023-06-10T12:08:54;81.27;;;4.70;;
4895;SDS011;2463;49.948;8.472;2023-06-10T12:11:32;78.73;;;4.43;;
4895;SDS011;2463;49.948;8.472;2023-06-10T12:14:00;81.63;;;4.60;;
4895;SDS011;2463;49.948;8.472;2023-06-10T12:16:26;79.17;;;4.47;;
4895;SDS011;2463;49.948;8.472;2023-06-10T12:19:00;80.97;;;4.83;;
4895;SDS011;2463;49.948;8.472;2023-06-10T12:21:32;81.00;;;4.57;;
4895;SDS011;2463;49.948;8.472;2023-06-10T12:26:38;79.13;;;4.33;;
4895;SDS011;2463;49.948;8.472;2023-06-10T12:29:15;91.00;;;5.17;;
4895;SDS011;2463;49.948;8.472;2023-06-10T12:34:36;80.33;;;4.90;;
4895;SDS011;2463;49.948;8.472;2023-06-10T12:37:05;83.37;;;4.23;;
4895;SDS011;2463;49.948;8.472;2023-06-10T12:39:39;83.13;;;4.70;;
4895;SDS011;2463;49.948;8.472;2023-06-10T12:42:11;83.33;;;4.50;;
4895;SDS011;2463;49.948;8.472;2023-06-10T12:44:39;79.40;;;5.00;;
4895;SDS011;2463;49.948;8.472;2023-06-10T12:47:10;81.37;;;4.47;;
4895;SDS011;2463;49.948;8.472;2023-06-10T12:49:40;81.10;;;4.77;;
4895;SDS011;2463;49.948;8.472;2023-06-10T12:52:07;81.37;;;4.70;;
4895;SDS011;2463;49.948;8.472;2023-06-10T12:54:34;79.00;;;4.50;;
4895;SDS011;2463;49.948;8.472;2023-06-10T12:57:00;79.37;;;4.60;;
4895;SDS011;2463;49.948;8.472;2023-06-10T12:59:27;77.60;;;4.70;;
4895;SDS011;2463;49.948;8.472;2023-06-10T13:01:54;80.10;;;5.30;;
4895;SDS011;2463;49.948;8.472;2023-06-10T13:04:21;80.90;;;4.73;;
4895;SDS011;2463;49.948;8.472;2023-06-10T13:06:48;79.40;;;5.30;;
4895;SDS011;2463;49.948;8.472;2023-06-10T13:09:15;80.47;;;4.60;;
4895;SDS011;2463;49.948;8.472;2023-06-10T13:11:42;79.10;;;4.30;;
4895;SDS011;2463;49.948;8.472;2023-06-10T13:14:10;80.37;;;4.50;;
4895;SDS011;2463;49.948;8.472;2023-06-10T13:16:37;82.63;;;4.10;;
4895;SDS011;2463;49.948;8.472;2023-06-10T13:19:04;79.93;;;4.73;;
4895;SDS011;2463;49.948;8.472;2023-06-10T13:21:32;80.90;;;4.60;;
4895;SDS011;2463;49.948;8.472;2023-06-10T13:23:59;93.33;;;5.23;;
4895;SDS011;2463;49.948;8.472;2023-06-10T13:26:26;81.73;;;4.93;;
4895;SDS011;2463;49.948;8.472;2023-06-10T13:28:53;80.60;;;5.10;;
4895;SDS011;2463;49.948;8.472;2023-06-10T13:31:19;83.87;;;5.60;;
4895;SDS011;2463;49.948;8.472;2023-06-10T13:33:47;83.13;;;5.40;;
4895;SDS011;2463;49.948;8.472;2023-06-10T13:36:14;82.37;;;5.50;;
4895;SDS011;2463;49.948;8.472;2023-06-10T13:38:41;81.50;;;5.30;;
4895;SDS011;2463;49.948;8.472;2023-06-10T13:41:07;81.00;;;5.00;;
4895;SDS011;2463;49.948;8.472;2023-06-10T13:43:34;80.97;;;5.27;;
4895;SDS011;2463;49.948;8.472;2023-06-10T13:46:01;81.50;;;5.20;;
4895;SDS011;2463;49.948;8.472;2023-06-10T13:48:28;82.50;;;5.33;;
4895;SDS011;2463;49.948;8.472;2023-06-10T13:50:55;81.60;;;5.27;;
4895;SDS011;2463;49.948;8.472;2023-06-10T13:53:22;81.90;;;4.93;;
4895;SDS011;2463;49.948;8.472;2023-06-10T13:55:48;82.17;;;5.37;;
4895;SDS011;2463;49.948;8.472;2023-06-10T13:58:15;86.67;;;4.90;;
4895;SDS011;2463;49.948;8.472;2023-06-10T14:00:42;81.30;;;5.20;;
4895;SDS011;2463;49.948;8.472;2023-06-10T14:03:08;84.27;;;6.77;;
4895;SDS011;2463;49.948;8.472;2023-06-10T14:05:35;81.60;;;5.60;;
4895;SDS011;2463;49.948;8.472;2023-06-10T14:08:02;82.40;;;5.47;;
4895;SDS011;2463;49.948;8.472;2023-06-10T14:10:29;81.73;;;5.13;;
4895;SDS011;2463;49.948;8.472;2023-06-10T14:12:56;82.80;;;5.47;;
4895;SDS011;2463;49.948;8.472;2023-06-10T14:15:23;83.40;;;4.90;;
4895;SDS011;2463;49.948;8.472;2023-06-10T14:17:49;80.80;;;5.20;;
4895;SDS011;2463;49.948;8.472;2023-06-10T14:20:16;81.33;;;4.83;;
4895;SDS011;2463;49.948;8.472;2023-06-10T14:22:43;83.80;;;5.37;;
4895;SDS011;2463;49.948;8.472;2023-06-10T14:25:10;81.43;;;5.10;;
4895;SDS011;2463;49.948;8.472;2023-06-10T14:27:38;81.50;;;5.70;;
4895;SDS011;2463;49.948;8.472;2023-06-10T14:30:05;83.00;;;5.67;;
4895;SDS011;2463;49.948;8.472;2023-06-10T14:32:32;86.70;;;6.53;;
4895;SDS011;2463;49.948;8.472;2023-06-10T14:34:59;82.00;;;5.00;;
4895;SDS011;2463;49.948;8.472;2023-06-10T14:37:26;79.90;;;4.70;;
4895;SDS011;2463;49.948;8.472;2023-06-10T14:39:53;81.50;;;5.47;;
4895;SDS011;2463;49.948;8.472;2023-06-10T14:42:19;85.50;;;5.07;;
4895;SDS011;2463;49.948;8.472;2023-06-10T14:44:46;79.27;;;4.50;;
4895;SDS011;2463;49.948;8.472;2023-06-10T14:47:13;81.53;;;4.60;;
4895;SDS011;2463;49.948;8.472;2023-06-10T14:49:39;84.97;;;5.03;;
4895;SDS011;2463;49.948;8.472;2023-06-10T14:52:08;79.50;;;4.43;;
4895;SDS011;2463;49.948;8.472;2023-06-10T14:54:35;79.80;;;4.57;;
4895;SDS011;2463;49.948;8.472;2023-06-10T14:57:02;89.80;;;5.07;;
4895;SDS011;2463;49.948;8.472;2023-06-10T14:59:29;79.33;;;5.10;;
4895;SDS011;2463;49.948;8.472;2023-06-10T15:01:55;82.50;;;5.70;;
4895;SDS011;2463;49.948;8.472;2023-06-10T15:04:23;84.67;;;5.20;;
4895;SDS011;2463;49.948;8.472;2023-06-10T15:06:50;79.50;;;4.47;;
4895;SDS011;2463;49.948;8.472;2023-06-10T15:09:17;81.90;;;5.07;;
4895;SDS011;2463;49.948;8.472;2023-06-10T15:11:43;79.80;;;5.10;;
4895;SDS011;2463;49.948;8.472;2023-06-10T15:14:10;81.97;;;5.53;;
4895;SDS011;2463;49.948;8.472;2023-06-10T15:16:37;82.47;;;5.47;;
4895;SDS011;2463;49.948;8.472;2023-06-10T15:19:04;85.47;;;5.07;;